VIJP/JAI METAR and TAF weather

Enter ICAO airport designator
Station Type Date Time Source
VIJP METAR 2019/02/16 17:30 UTC NOAA

VIJP 161730Z 03004KT 3000 HZ NSC 16/07 Q1018 NOSIG


Station Type Date Time Source
VIJP Decoded METAR 2019/02/16 17:30 UTC NOAA

Jaipur / Sanganer, India (VIJP) 26-49N 075-48E 390M
Feb 16, 2019 - 12:30 PM EST / 2019.02.16 1730 UTC
Wind: from the NNE (030 degrees) at 5 MPH (4 KT):0
Visibility: 1 mile(s):0
Weather: haze
Temperature: 60 F (16 C)
Dew Point: 44 F (7 C)
Relative Humidity: 55%
Pressure (altimeter): 30.06 in. Hg (1018 hPa)
ob: VIJP 161730Z 03004KT 3000 HZ NSC 16/07 Q1018 NOSIG
cycle: 17

Station Type Date Time Source
VIJP TAF 2019/02/16 18:00 UTC NOAA

TAF VIJP 161700Z 1618/1724 VRB02KT 2500 HZ NSC
BECMG 1700/1702 02005KT 1500 FU BR FEW035 SCT100
BECMG 1704/1706 04005KT 3000 HZ SCT035 SCT100
TEMPO 1709/1715 1500 TSRA FEW030CB BKN100
BECMG 1712/1713 VRB02KT 2000 HZ


Example: see airport list